createdAt,value
2018-01-13T00:00:54.940Z,1.70
2018-01-13T00:03:25.550Z,1.70
2018-01-13T00:05:55.371Z,1.70
2018-01-13T00:08:25.158Z,1.60
2018-01-13T00:10:54.989Z,1.60
2018-01-13T00:13:24.788Z,1.60
2018-01-13T00:15:54.631Z,1.60
2018-01-13T00:18:24.431Z,1.60
2018-01-13T00:20:54.396Z,1.70
2018-01-13T00:23:24.196Z,1.70
2018-01-13T00:25:54.736Z,1.60
2018-01-13T00:28:24.279Z,1.50
2018-01-13T00:30:53.781Z,1.50
2018-01-13T00:33:23.671Z,1.50
2018-01-13T00:35:53.474Z,1.60
2018-01-13T00:38:23.324Z,1.40
2018-01-13T00:40:53.186Z,1.50
2018-01-13T00:43:23.943Z,1.60
2018-01-13T00:45:53.782Z,1.60
2018-01-13T00:48:23.596Z,1.60
2018-01-13T00:50:53.415Z,1.60
2018-01-13T00:53:23.211Z,1.60
2018-01-13T00:55:53.040Z,1.60
2018-01-13T00:58:22.863Z,1.60
2018-01-13T01:00:52.708Z,1.60
2018-01-13T01:03:22.559Z,1.60
2018-01-13T01:05:52.403Z,1.60
2018-01-13T01:08:22.225Z,1.60
2018-01-13T01:10:52.097Z,1.60
2018-01-13T01:13:21.859Z,1.70
2018-01-13T01:15:51.817Z,1.70
2018-01-13T01:18:21.667Z,1.60
2018-01-13T01:20:51.543Z,1.60
2018-01-13T01:23:21.374Z,1.60
2018-01-13T01:25:51.151Z,1.60
2018-01-13T01:28:21.723Z,1.60
2018-01-13T01:30:51.609Z,1.60
2018-01-13T01:33:21.596Z,1.50
2018-01-13T01:35:51.388Z,1.60
2018-01-13T01:38:21.172Z,1.60
2018-01-13T01:40:51.000Z,1.50
2018-01-13T01:43:20.777Z,1.50
2018-01-13T01:45:50.560Z,1.50
2018-01-13T01:48:25.472Z,1.50
2018-01-13T01:50:55.312Z,1.50
2018-01-13T01:53:25.840Z,1.60
2018-01-13T01:55:56.448Z,1.60
2018-01-13T01:58:26.281Z,1.60
2018-01-13T02:00:56.832Z,1.50
2018-01-13T02:03:26.683Z,1.40
2018-01-13T02:05:56.529Z,1.50
2018-01-13T02:08:25.973Z,1.50
2018-01-13T02:10:55.905Z,1.50
2018-01-13T02:13:25.824Z,1.50
2018-01-13T02:15:55.673Z,1.40
2018-01-13T02:18:25.455Z,1.40
2018-01-13T02:20:55.319Z,1.40
2018-01-13T02:23:25.863Z,1.50
2018-01-13T02:25:55.668Z,1.40
2018-01-13T02:28:26.433Z,1.40
2018-01-13T02:30:56.480Z,1.40
2018-01-13T02:33:26.270Z,1.30
2018-01-13T02:35:56.030Z,1.30
2018-01-13T02:38:26.634Z,1.40
2018-01-13T02:40:56.611Z,1.40
2018-01-13T02:43:26.413Z,1.40
2018-01-13T02:45:56.185Z,1.40
2018-01-13T02:48:26.061Z,1.40
2018-01-13T02:50:55.964Z,1.40
2018-01-13T02:53:25.777Z,1.50
2018-01-13T02:55:56.337Z,1.40
2018-01-13T02:58:26.156Z,1.40
2018-01-13T03:00:56.033Z,1.30
2018-01-13T03:03:26.174Z,1.40
2018-01-13T03:05:55.967Z,1.40
2018-01-13T03:08:25.761Z,1.30
2018-01-13T03:10:56.328Z,1.30
2018-01-13T03:13:26.169Z,1.30
2018-01-13T03:15:56.014Z,1.30
2018-01-13T03:18:25.898Z,1.30
2018-01-13T03:20:56.211Z,1.30
2018-01-13T03:23:26.090Z,1.30
2018-01-13T03:25:55.920Z,1.30
2018-01-13T03:28:25.740Z,1.20
2018-01-13T03:30:55.552Z,1.20
2018-01-13T03:33:25.381Z,1.30
2018-01-13T03:35:55.155Z,1.30
2018-01-13T03:38:24.978Z,1.30
2018-01-13T03:40:54.743Z,1.30
2018-01-13T03:43:25.400Z,1.20
2018-01-13T03:45:55.302Z,1.20
2018-01-13T03:48:25.967Z,1.30
2018-01-13T03:50:56.025Z,1.30
2018-01-13T03:53:26.005Z,1.20
2018-01-13T03:55:55.535Z,1.20
2018-01-13T03:58:25.344Z,1.20
2018-01-13T04:00:55.112Z,1.20
2018-01-13T04:03:25.716Z,1.20
2018-01-13T04:05:55.606Z,1.10
2018-01-13T04:08:25.393Z,1.20
2018-01-13T04:10:55.212Z,1.20
2018-01-13T04:13:25.008Z,1.20
2018-01-13T04:15:54.809Z,1.20
2018-01-13T04:18:25.453Z,1.30
2018-01-13T04:20:55.301Z,1.30
2018-01-13T04:23:25.096Z,1.30
2018-01-13T04:25:54.920Z,1.30
2018-01-13T04:28:24.724Z,1.40
2018-01-13T04:30:54.491Z,1.40
2018-01-13T04:33:25.087Z,1.30
2018-01-13T04:35:54.880Z,1.30
2018-01-13T04:38:24.688Z,1.30
2018-01-13T04:40:54.508Z,1.20
2018-01-13T04:43:24.304Z,1.20
2018-01-13T04:45:54.153Z,1.20
2018-01-13T04:48:23.960Z,1.20
2018-01-13T04:50:53.796Z,1.30
2018-01-13T04:53:23.592Z,1.20
2018-01-13T04:55:53.424Z,1.20
2018-01-13T04:58:23.224Z,1.20
2018-01-13T05:00:53.024Z,1.20
2018-01-13T05:03:22.843Z,1.20
2018-01-13T05:05:52.620Z,1.20
2018-01-13T05:08:22.533Z,1.20
2018-01-13T05:10:52.299Z,1.20
2018-01-13T05:13:22.112Z,1.20
2018-01-13T05:15:51.908Z,1.30
2018-01-13T05:18:21.712Z,1.30
2018-01-13T05:20:51.743Z,1.30
2018-01-13T05:23:21.660Z,1.30
2018-01-13T05:25:51.468Z,1.30
2018-01-13T05:28:21.379Z,1.30
2018-01-13T05:30:51.168Z,1.30
2018-01-13T05:33:20.977Z,1.20
2018-01-13T05:35:50.741Z,1.20
2018-01-13T05:38:20.524Z,1.30
2018-01-13T05:40:50.292Z,1.30
2018-01-13T05:43:20.120Z,1.30
2018-01-13T05:45:49.882Z,1.40
2018-01-13T05:48:20.557Z,1.30
2018-01-13T05:50:50.395Z,1.30
2018-01-13T05:53:20.194Z,1.30
2018-01-13T05:55:49.996Z,1.30
2018-01-13T05:58:19.913Z,1.30
2018-01-13T06:00:49.749Z,1.20
2018-01-13T06:03:19.558Z,1.20
2018-01-13T06:05:49.377Z,1.30
2018-01-13T06:08:19.199Z,1.20
2018-01-13T06:10:49.022Z,1.20
2018-01-13T06:13:18.970Z,1.20
2018-01-13T06:15:49.520Z,1.20
2018-01-13T06:18:19.355Z,1.20
2018-01-13T06:20:49.146Z,1.20
2018-01-13T06:23:18.967Z,1.20
2018-01-13T06:25:48.784Z,1.20
2018-01-13T06:28:18.240Z,1.20
2018-01-13T06:30:47.999Z,1.20
2018-01-13T06:33:17.796Z,1.20
2018-01-13T06:35:47.564Z,1.20
2018-01-13T06:38:17.608Z,1.20
2018-01-13T06:40:48.164Z,1.20
2018-01-13T06:43:18.003Z,1.20
2018-01-13T06:45:47.773Z,1.20
2018-01-13T06:48:18.392Z,1.20
2018-01-13T06:50:48.968Z,1.20
2018-01-13T06:53:18.765Z,1.10
2018-01-13T06:55:48.572Z,1.20
2018-01-13T06:58:18.364Z,1.10
2018-01-13T07:00:48.980Z,1.10
2018-01-13T07:03:18.776Z,1.00
2018-01-13T07:05:48.580Z,1.10
2018-01-13T07:08:18.361Z,1.10
2018-01-13T07:10:48.181Z,1.20
2018-01-13T07:13:17.954Z,1.10
2018-01-13T07:15:47.760Z,1.10
2018-01-13T07:18:17.556Z,1.10
2018-01-13T07:20:47.410Z,1.10
2018-01-13T07:23:17.260Z,1.10
2018-01-13T07:25:47.083Z,1.10
2018-01-13T07:28:16.897Z,1.10
2018-01-13T07:30:46.677Z,1.10
2018-01-13T07:33:16.531Z,1.10
2018-01-13T07:35:46.368Z,1.00
2018-01-13T07:38:16.198Z,1.00
2018-01-13T07:40:47.743Z,1.00
2018-01-13T07:43:18.599Z,1.00
2018-01-13T07:45:48.427Z,1.00
2018-01-13T07:48:18.347Z,1.00
2018-01-13T07:50:48.168Z,1.00
2018-01-13T07:53:18.062Z,1.00
2018-01-13T07:55:47.929Z,1.00
2018-01-13T07:58:17.719Z,1.00
2018-01-13T08:00:47.600Z,1.00
2018-01-13T08:03:17.444Z,1.10
2018-01-13T08:05:47.051Z,1.00
2018-01-13T08:08:16.714Z,1.00
2018-01-13T08:10:47.365Z,1.10
2018-01-13T08:13:17.136Z,1.10
2018-01-13T08:15:47.149Z,1.10
2018-01-13T08:18:16.947Z,0.90
2018-01-13T08:20:46.823Z,0.90
2018-01-13T08:23:16.656Z,0.90
2018-01-13T08:25:46.455Z,1.00
2018-01-13T08:28:16.292Z,1.00
2018-01-13T08:30:47.232Z,1.00
2018-01-13T08:33:17.001Z,1.00
2018-01-13T08:35:46.804Z,1.10
2018-01-13T08:38:17.680Z,1.00
2018-01-13T08:40:47.500Z,0.90
2018-01-13T08:43:17.349Z,1.00
2018-01-13T08:45:47.121Z,1.00
2018-01-13T08:48:16.916Z,0.90
2018-01-13T08:50:47.476Z,0.80
2018-01-13T08:53:17.287Z,0.80
2018-01-13T08:55:47.062Z,0.80
2018-01-13T08:58:17.526Z,0.80
2018-01-13T09:00:47.119Z,0.80
2018-01-13T09:03:16.772Z,0.90
2018-01-13T09:05:46.416Z,0.80
2018-01-13T09:08:16.260Z,0.70
2018-01-13T09:10:46.073Z,0.70
2018-01-13T09:13:15.878Z,0.70
2018-01-13T09:15:45.782Z,0.60
2018-01-13T09:18:15.574Z,0.80
2018-01-13T09:20:47.187Z,0.60
2018-01-13T09:23:16.960Z,0.60
2018-01-13T09:25:47.551Z,0.70
2018-01-13T09:28:17.352Z,0.60
2018-01-13T09:30:47.179Z,0.80
2018-01-13T09:33:16.994Z,1.20
2018-01-13T09:35:46.796Z,1.30
2018-01-13T09:38:16.609Z,1.50
2018-01-13T09:40:46.472Z,1.60
2018-01-13T09:43:17.098Z,1.70
2018-01-13T09:45:47.662Z,1.50
2018-01-13T09:48:17.417Z,1.50
2018-01-13T09:50:47.258Z,1.40
2018-01-13T09:53:17.820Z,1.50
2018-01-13T09:55:47.660Z,1.50
2018-01-13T09:58:17.444Z,1.40
2018-01-13T10:00:47.256Z,1.40
2018-01-13T10:03:17.113Z,1.30
2018-01-13T10:05:46.900Z,1.30
2018-01-13T10:08:16.739Z,1.10
2018-01-13T10:10:46.536Z,1.10
2018-01-13T10:13:16.432Z,1.20
2018-01-13T10:15:46.340Z,1.20
2018-01-13T10:18:16.174Z,1.20
2018-01-13T10:20:45.975Z,1.20
2018-01-13T10:23:15.863Z,1.20
2018-01-13T10:25:45.677Z,1.20
2018-01-13T10:28:15.449Z,1.20
2018-01-13T10:30:45.248Z,1.20
2018-01-13T10:33:15.030Z,1.10
2018-01-13T10:35:44.926Z,1.10
2018-01-13T10:38:14.708Z,1.00
2018-01-13T10:40:44.528Z,0.80
2018-01-13T10:43:15.095Z,0.90
2018-01-13T10:45:44.892Z,0.90
2018-01-13T10:48:15.444Z,0.80
2018-01-13T10:50:45.266Z,0.80
2018-01-13T10:53:15.096Z,0.90
2018-01-13T10:55:44.892Z,0.70
2018-01-13T10:58:15.120Z,0.70
2018-01-13T11:00:44.981Z,0.80
2018-01-13T11:03:15.540Z,0.80
2018-01-13T11:05:45.216Z,0.80
2018-01-13T11:08:15.040Z,0.80
2018-01-13T11:10:45.640Z,0.80
2018-01-13T11:13:15.500Z,0.70
2018-01-13T11:15:46.235Z,0.80
2018-01-13T11:18:17.638Z,0.70
2018-01-13T11:20:48.964Z,0.70
2018-01-13T11:23:18.947Z,0.80
2018-01-13T11:25:48.754Z,0.80
2018-01-13T11:28:18.556Z,0.90
2018-01-13T11:30:49.205Z,1.00
2018-01-13T11:33:19.016Z,1.00
2018-01-13T11:35:48.816Z,1.00
2018-01-13T11:38:18.908Z,1.00
2018-01-13T11:40:49.017Z,1.00
2018-01-13T11:43:19.908Z,1.00
2018-01-13T11:45:49.685Z,1.00
2018-01-13T11:48:19.221Z,1.00
2018-01-13T11:50:49.216Z,0.90
2018-01-13T11:53:19.022Z,1.00
2018-01-13T11:55:48.836Z,0.90
2018-01-13T11:58:18.592Z,1.00
2018-01-13T12:00:48.429Z,0.90
2018-01-13T12:03:19.044Z,0.90
2018-01-13T12:05:48.851Z,0.90
2018-01-13T12:08:18.715Z,0.90
2018-01-13T12:10:48.536Z,0.90
2018-01-13T12:13:18.312Z,0.80
2018-01-13T12:15:48.728Z,0.80
2018-01-13T12:18:18.498Z,0.80
2018-01-13T12:20:48.404Z,0.80
2018-01-13T12:23:18.210Z,0.70
2018-01-13T12:25:47.793Z,0.80
2018-01-13T12:28:18.347Z,0.80
2018-01-13T12:30:48.148Z,0.80
2018-01-13T12:33:17.944Z,0.80
2018-01-13T12:38:25.596Z,0.80
2018-01-13T12:40:55.501Z,0.70
2018-01-13T12:43:25.328Z,0.60
2018-01-13T12:45:54.972Z,0.60
2018-01-13T12:48:24.789Z,0.70
2018-01-13T12:50:54.660Z,0.70
2018-01-13T12:53:24.434Z,0.80
2018-01-13T12:55:55.109Z,0.80
2018-01-13T12:58:24.887Z,0.80
2018-01-13T13:00:54.820Z,0.80
2018-01-13T13:03:24.674Z,0.70
2018-01-13T13:05:54.497Z,0.60
2018-01-13T13:08:24.322Z,0.60
2018-01-13T13:10:55.896Z,0.60
2018-01-13T13:13:25.848Z,0.60
2018-01-13T13:15:55.769Z,0.70
2018-01-13T13:18:25.206Z,0.80
2018-01-13T13:20:55.012Z,0.80
2018-01-13T13:23:24.801Z,0.80
2018-01-13T13:25:54.651Z,0.80
2018-01-13T13:28:25.256Z,0.80
2018-01-13T13:30:55.056Z,0.80
2018-01-13T13:33:24.892Z,0.80
2018-01-13T13:35:54.884Z,0.90
2018-01-13T13:38:24.725Z,0.90
2018-01-13T13:40:54.501Z,0.90
2018-01-13T13:43:24.329Z,0.90
2018-01-13T13:45:53.928Z,1.00
2018-01-13T13:48:23.737Z,1.00
2018-01-13T13:50:53.694Z,1.00
2018-01-13T13:53:25.011Z,0.90
2018-01-13T13:55:54.841Z,0.90
2018-01-13T13:58:24.672Z,0.90
2018-01-13T14:00:54.468Z,0.90
2018-01-13T14:03:24.297Z,0.90
2018-01-13T14:05:54.089Z,0.90
2018-01-13T14:08:23.893Z,0.90
2018-01-13T14:10:53.713Z,0.90
2018-01-13T14:13:23.525Z,0.90
2018-01-13T14:15:53.338Z,0.90
2018-01-13T14:18:23.128Z,0.90
2018-01-13T14:20:52.940Z,0.90
2018-01-13T14:23:22.793Z,1.00
2018-01-13T14:25:52.561Z,1.00
2018-01-13T14:28:22.364Z,1.00
2018-01-13T14:30:52.211Z,1.00
2018-01-13T14:33:22.000Z,1.00
2018-01-13T14:35:51.821Z,0.90
2018-01-13T14:38:21.609Z,0.90
2018-01-13T14:40:52.188Z,1.00
2018-01-13T14:43:21.971Z,1.00
2018-01-13T14:45:51.788Z,0.90
2018-01-13T14:48:21.672Z,1.00
2018-01-13T14:50:52.317Z,0.90
2018-01-13T14:53:22.187Z,0.90
2018-01-13T14:55:52.493Z,1.10
2018-01-13T14:58:22.392Z,1.00
2018-01-13T15:00:52.314Z,1.10
2018-01-13T15:03:22.123Z,1.10
2018-01-13T15:05:52.024Z,1.10
2018-01-13T15:08:21.930Z,1.00
2018-01-13T15:10:51.770Z,1.00
2018-01-13T15:13:21.669Z,1.00
2018-01-13T15:15:51.498Z,1.00
2018-01-13T15:18:21.488Z,1.00
2018-01-13T15:20:51.293Z,1.00
2018-01-13T15:23:21.870Z,1.00
2018-01-13T15:25:52.338Z,1.00
2018-01-13T15:28:22.489Z,1.00
2018-01-13T15:30:53.445Z,1.00
2018-01-13T15:33:24.202Z,1.00
2018-01-13T15:35:54.814Z,1.00
2018-01-13T15:38:25.481Z,1.00
2018-01-13T15:40:55.314Z,1.00
2018-01-13T15:43:26.989Z,1.10
2018-01-13T15:45:58.543Z,1.10
2018-01-13T15:48:28.505Z,1.10
2018-01-13T15:50:59.346Z,1.10
2018-01-13T15:53:29.288Z,1.10
2018-01-13T15:55:59.090Z,1.10
2018-01-13T15:58:29.746Z,1.10
2018-01-13T16:01:01.025Z,1.10
2018-01-13T16:03:30.805Z,1.10
2018-01-13T16:06:01.397Z,1.00
2018-01-13T16:08:31.292Z,1.00
2018-01-13T16:11:01.103Z,1.00
2018-01-13T16:13:30.927Z,1.00
2018-01-13T16:16:00.740Z,1.10
2018-01-13T16:18:30.564Z,1.10
2018-01-13T16:21:00.373Z,1.10
2018-01-13T16:23:30.211Z,1.10
2018-01-13T16:26:00.004Z,1.10
2018-01-13T16:28:29.877Z,1.20
2018-01-13T16:30:59.651Z,1.20
2018-01-13T16:33:30.222Z,1.10
2018-01-13T16:36:00.032Z,1.10
2018-01-13T16:38:30.044Z,1.10
2018-01-13T16:41:00.114Z,1.20
2018-01-13T16:43:29.921Z,1.20
2018-01-13T16:45:59.800Z,1.20
2018-01-13T16:48:29.628Z,1.10
2018-01-13T16:50:59.452Z,1.10
2018-01-13T16:53:29.450Z,1.10
2018-01-13T16:55:59.277Z,1.10
2018-01-13T16:58:29.124Z,1.10
2018-01-13T17:00:58.901Z,1.10
2018-01-13T17:03:28.729Z,1.10
2018-01-13T17:05:58.528Z,1.10
2018-01-13T17:08:28.350Z,1.00
2018-01-13T17:10:58.227Z,1.00
2018-01-13T17:13:28.017Z,1.00
2018-01-13T17:15:58.600Z,1.00
2018-01-13T17:18:28.512Z,1.00
2018-01-13T17:20:58.376Z,1.00
2018-01-13T17:23:28.935Z,1.00
2018-01-13T17:25:58.756Z,1.00
2018-01-13T17:28:28.568Z,1.00
2018-01-13T17:30:58.348Z,0.90
2018-01-13T17:33:28.204Z,0.90
2018-01-13T17:35:58.028Z,0.90
2018-01-13T17:38:27.915Z,0.80
2018-01-13T17:40:57.736Z,0.80
2018-01-13T17:43:27.581Z,0.80
2018-01-13T17:45:57.472Z,0.80
2018-01-13T17:48:27.424Z,0.70
2018-01-13T17:50:57.251Z,0.70
2018-01-13T17:53:27.085Z,0.80
2018-01-13T17:55:57.100Z,0.70
2018-01-13T17:58:26.910Z,0.80
2018-01-13T18:00:56.765Z,0.80
2018-01-13T18:03:26.545Z,0.80
2018-01-13T18:05:56.414Z,0.80
2018-01-13T18:08:26.264Z,0.80
2018-01-13T18:10:56.891Z,0.90
2018-01-13T18:13:27.547Z,0.80
2018-01-13T18:15:57.463Z,0.80
2018-01-13T18:18:27.310Z,0.80
2018-01-13T18:20:57.114Z,0.70
2018-01-13T18:23:27.078Z,0.80
2018-01-13T18:25:57.665Z,0.80
2018-01-13T18:28:27.550Z,0.80
2018-01-13T18:30:57.336Z,0.70
2018-01-13T18:33:27.891Z,0.80
2018-01-13T18:35:57.711Z,0.80
2018-01-13T18:38:27.592Z,0.80
2018-01-13T18:40:58.126Z,0.80
2018-01-13T18:43:28.720Z,0.70
2018-01-13T18:45:58.545Z,0.70
2018-01-13T18:48:28.385Z,0.80
2018-01-13T18:50:58.965Z,0.70
2018-01-13T18:53:29.030Z,0.70
2018-01-13T18:55:59.596Z,0.70
2018-01-13T18:58:30.272Z,0.70
2018-01-13T19:01:00.085Z,0.70
2018-01-13T19:03:29.898Z,0.70
2018-01-13T19:05:59.700Z,0.70
2018-01-13T19:08:29.474Z,0.70
2018-01-13T19:10:59.300Z,0.70
2018-01-13T19:13:29.145Z,0.70
2018-01-13T19:15:58.985Z,0.60
2018-01-13T19:18:29.646Z,0.60
2018-01-13T19:21:00.424Z,0.60
2018-01-13T19:23:30.411Z,0.60
2018-01-13T19:26:01.552Z,0.60
2018-01-13T19:28:31.606Z,0.70
2018-01-13T19:31:01.581Z,0.60
2018-01-13T19:33:32.167Z,0.60
2018-01-13T19:36:02.024Z,0.60
2018-01-13T19:38:32.768Z,0.70
2018-01-13T19:41:02.857Z,0.70
2018-01-13T19:43:32.778Z,0.70
2018-01-13T19:46:03.383Z,0.70
2018-01-13T19:48:33.203Z,0.70
2018-01-13T19:51:03.021Z,0.70
2018-01-13T19:53:32.920Z,0.70
2018-01-13T19:56:02.732Z,0.70
2018-01-13T19:58:32.545Z,0.70
2018-01-13T20:01:02.380Z,0.70
2018-01-13T20:03:32.264Z,0.70
2018-01-13T20:06:02.158Z,0.70
2018-01-13T20:08:32.238Z,0.70
2018-01-13T20:11:02.853Z,0.60
2018-01-13T20:13:32.708Z,0.60
2018-01-13T20:16:03.612Z,0.70
2018-01-13T20:18:34.012Z,0.70
2018-01-13T20:21:04.990Z,0.70
2018-01-13T20:23:35.684Z,0.60
2018-01-13T20:26:05.521Z,0.60
2018-01-13T20:28:35.456Z,0.60
2018-01-13T20:31:06.152Z,0.70
2018-01-13T20:33:35.964Z,0.70
2018-01-13T20:36:05.984Z,0.70
2018-01-13T20:38:35.789Z,0.80
2018-01-13T20:41:06.129Z,0.80
2018-01-13T20:43:36.038Z,0.80
2018-01-13T20:46:05.845Z,0.80
2018-01-13T20:48:35.668Z,0.70
2018-01-13T20:51:05.527Z,0.80
2018-01-13T20:53:35.352Z,0.80
2018-01-13T20:56:06.732Z,0.80
2018-01-13T20:58:36.542Z,0.80
2018-01-13T21:01:06.388Z,0.80
2018-01-13T21:03:36.209Z,0.80
2018-01-13T21:06:06.053Z,0.80
2018-01-13T21:08:35.953Z,0.80
2018-01-13T21:11:05.889Z,0.80
2018-01-13T21:13:36.602Z,0.80
2018-01-13T21:16:07.333Z,0.80
2018-01-13T21:18:36.953Z,0.80
2018-01-13T21:21:06.784Z,0.80
2018-01-13T21:23:36.729Z,0.70
2018-01-13T21:26:06.292Z,0.80
2018-01-13T21:28:36.231Z,0.80
2018-01-13T21:31:06.028Z,0.80
2018-01-13T21:33:35.902Z,0.80
2018-01-13T21:36:05.701Z,0.80
2018-01-13T21:38:36.138Z,0.80
2018-01-13T21:41:06.015Z,0.80
2018-01-13T21:43:35.934Z,0.80
2018-01-13T21:46:05.430Z,0.90
2018-01-13T21:48:35.528Z,0.80
2018-01-13T21:51:05.361Z,0.90
2018-01-13T21:53:35.287Z,0.80
2018-01-13T21:56:05.743Z,0.80
2018-01-13T21:58:35.555Z,0.80
2018-01-13T22:01:05.414Z,0.80
2018-01-13T22:03:35.302Z,0.80
2018-01-13T22:06:04.824Z,0.80
2018-01-13T22:08:34.369Z,0.80
2018-01-13T22:11:04.294Z,0.80
2018-01-13T22:13:33.986Z,0.90
2018-01-13T22:16:04.304Z,0.80
2018-01-13T22:18:33.910Z,0.80
2018-01-13T22:21:03.416Z,0.90
2018-01-13T22:23:33.034Z,0.90
2018-01-13T22:26:02.554Z,0.90
2018-01-13T22:28:32.083Z,0.90
2018-01-13T22:31:01.649Z,1.00
2018-01-13T22:33:32.202Z,1.00
2018-01-13T22:36:01.750Z,1.10
2018-01-13T22:38:31.280Z,1.10
2018-01-13T22:41:00.843Z,1.00
2018-01-13T22:43:31.149Z,0.90
2018-01-13T22:46:00.675Z,0.90
2018-01-13T22:48:30.192Z,0.90
2018-01-13T22:51:00.205Z,0.90
2018-01-13T22:53:30.581Z,0.90
2018-01-13T22:56:00.217Z,0.90
2018-01-13T22:58:30.221Z,0.90
2018-01-13T23:00:59.815Z,0.90
2018-01-13T23:03:29.301Z,0.90
2018-01-13T23:05:58.865Z,0.90
2018-01-13T23:08:29.158Z,0.90
2018-01-13T23:10:58.713Z,0.90
2018-01-13T23:13:29.449Z,0.90
2018-01-13T23:15:59.292Z,0.90
2018-01-13T23:18:29.142Z,0.90
2018-01-13T23:20:58.975Z,0.80
2018-01-13T23:23:29.273Z,0.80
2018-01-13T23:25:58.868Z,0.80
2018-01-13T23:28:28.365Z,0.90
2018-01-13T23:30:57.934Z,0.90
2018-01-13T23:33:27.490Z,0.90
2018-01-13T23:35:57.047Z,0.90
2018-01-13T23:38:26.588Z,0.90
2018-01-13T23:40:56.524Z,0.90
2018-01-13T23:43:26.579Z,0.90
2018-01-13T23:45:56.848Z,0.90
2018-01-13T23:48:26.444Z,0.90
2018-01-13T23:50:56.272Z,0.80
2018-01-13T23:53:25.797Z,0.80
2018-01-13T23:55:55.379Z,0.90
2018-01-13T23:58:24.885Z,0.90
